Time;durP1;ratioP1;P1;durP2;ratioP2;P2;SDS_P1;SDS_P2;PMS_P1;PMS_P2;Temp;Humidity;BMP_temperature;BMP_pressure;BME280_temperature;BME280_humidity;BME280_pressure;Samples;Min_cycle;Max_cycle;Signal;HPM_P1;HPM_P2
2023/01/24 00:02:25;;;;;;;39.43;18.97;;;0.60;99.90;;;;;;5215096;28;20180;-47
2023/01/24 00:04:55;;;;;;;36.13;15.83;;;0.60;99.90;;;;;;5204085;28;20544;-50
2023/01/24 00:07:26;;;;;;;33.30;16.50;;;0.60;99.90;;;;;;5203916;28;20207;-47
2023/01/24 00:09:57;;;;;;;30.80;15.67;;;0.60;99.90;;;;;;5205987;28;20189;-45
2023/01/24 00:12:28;;;;;;;35.73;17.60;;;0.50;99.90;;;;;;5198133;28;20646;-46
2023/01/24 00:14:59;;;;;;;33.30;17.03;;;0.40;99.90;;;;;;5185413;28;20212;-47
2023/01/24 00:17:30;;;;;;;35.90;17.83;;;0.50;99.90;;;;;;5208273;28;20450;-47
2023/01/24 00:20:01;;;;;;;32.03;16.73;;;0.50;99.90;;;;;;5192262;28;20215;-46
2023/01/24 00:22:32;;;;;;;29.03;16.80;;;0.50;99.90;;;;;;5191143;28;20191;-45
2023/01/24 00:25:02;;;;;;;29.00;16.30;;;0.50;99.90;;;;;;5199956;28;20426;-47
2023/01/24 00:27:34;;;;;;;33.87;15.77;;;0.50;99.90;;;;;;5166794;28;20459;-46
2023/01/24 00:30:05;;;;;;;26.67;14.93;;;0.60;99.90;;;;;;5190868;28;20263;-47
2023/01/24 00:32:36;;;;;;;24.50;13.90;;;0.60;99.90;;;;;;5194291;28;20449;-45
2023/01/24 00:35:07;;;;;;;26.67;14.20;;;0.50;99.90;;;;;;5188026;28;20478;-47
2023/01/24 00:37:38;;;;;;;26.03;14.33;;;0.50;99.90;;;;;;5201232;28;20195;-48
2023/01/24 00:40:10;;;;;;;25.77;14.37;;;0.40;99.90;;;;;;5211030;28;20439;-46
2023/01/24 00:42:40;;;;;;;30.50;15.47;;;0.50;99.90;;;;;;5222494;28;20191;-47
2023/01/24 00:45:11;;;;;;;31.20;15.50;;;0.50;99.90;;;;;;5189247;28;20449;-45
2023/01/24 00:47:41;;;;;;;25.77;14.73;;;0.40;99.90;;;;;;5208834;28;20214;-48
2023/01/24 00:50:12;;;;;;;28.27;15.07;;;0.40;99.90;;;;;;5201278;28;20202;-46
2023/01/24 00:52:43;;;;;;;26.30;13.73;;;0.40;99.90;;;;;;5191125;28;20303;-46
2023/01/24 00:55:13;;;;;;;23.00;13.63;;;0.40;99.90;;;;;;5190330;28;20216;-52
2023/01/24 00:57:44;;;;;;;19.07;12.67;;;0.40;99.90;;;;;;5236144;22;20235;-50
2023/01/24 01:00:15;;;;;;;22.43;12.80;;;0.40;99.90;;;;;;5216619;28;20665;-50
2023/01/24 01:02:46;;;;;;;19.73;13.03;;;0.40;99.90;;;;;;5235578;28;20642;-52
2023/01/24 01:05:18;;;;;;;24.00;13.03;;;0.30;99.90;;;;;;5229382;28;20958;-50
2023/01/24 01:07:48;;;;;;;20.57;11.60;;;0.40;99.90;;;;;;5242199;28;20457;-50
2023/01/24 01:10:19;;;;;;;30.90;13.30;;;0.30;99.90;;;;;;5230244;28;20433;-51
2023/01/24 01:12:49;;;;;;;19.80;12.43;;;0.30;99.90;;;;;;5210755;28;20255;-49
2023/01/24 01:15:20;;;;;;;20.03;12.60;;;0.30;99.90;;;;;;5225247;28;20211;-50
2023/01/24 01:17:51;;;;;;;25.40;13.13;;;0.30;99.90;;;;;;5208942;28;20207;-50
2023/01/24 01:20:21;;;;;;;25.90;12.80;;;0.30;99.90;;;;;;5223179;28;20183;-49
2023/01/24 01:22:52;;;;;;;19.20;10.87;;;0.40;99.90;;;;;;5226973;28;20232;-49
2023/01/24 01:25:23;;;;;;;21.13;12.30;;;0.30;99.90;;;;;;5210099;28;20179;-49
2023/01/24 01:27:53;;;;;;;18.13;12.23;;;0.20;99.90;;;;;;5210785;28;20198;-50
2023/01/24 01:30:24;;;;;;;18.37;12.03;;;0.30;99.90;;;;;;5225453;28;20183;-49
2023/01/24 01:32:54;;;;;;;20.33;12.20;;;0.30;99.90;;;;;;5209781;28;20179;-51
2023/01/24 01:35:25;;;;;;;18.20;11.73;;;0.20;99.90;;;;;;5221056;28;20211;-51
2023/01/24 01:37:56;;;;;;;21.20;11.43;;;0.20;99.90;;;;;;5208653;28;20205;-51
2023/01/24 01:40:26;;;;;;;20.87;11.10;;;0.20;99.90;;;;;;5226117;28;20269;-50
2023/01/24 01:42:57;;;;;;;15.83;10.43;;;0.20;99.90;;;;;;5210882;28;20206;-52
2023/01/24 01:45:38;;;;;;;14.13;10.30;;;0.20;99.90;;;;;;5221016;28;20183;-50
2023/01/24 01:48:18;;;;;;;14.63;9.30;;;0.20;99.90;;;;;;5208516;28;20225;-51
2023/01/24 01:50:57;;;;;;;18.30;10.27;;;0.20;99.90;;;;;;5222824;28;20437;-50
2023/01/24 01:53:34;;;;;;;13.13;8.93;;;0.20;99.90;;;;;;5210383;28;20875;-50
2023/01/24 01:56:14;;;;;;;13.80;9.17;;;0.20;99.90;;;;;;5208204;28;20503;-50
2023/01/24 01:58:44;;;;;;;15.57;10.00;;;0.20;99.90;;;;;;5204035;28;20794;-50
2023/01/24 02:01:15;;;;;;;17.17;9.47;;;0.10;99.90;;;;;;5225895;28;20421;-49
2023/01/24 02:04:03;;;;;;;11.43;8.50;;;0.10;99.90;;;;;;5215874;28;20203;-50
2023/01/24 02:07:00;;;;;;;13.63;9.00;;;0.20;99.90;;;;;;5218869;28;20635;-50
2023/01/24 02:09:40;;;;;;;13.70;8.80;;;0.20;99.90;;;;;;5221732;28;20932;-48
2023/01/24 02:12:15;;;;;;;16.77;9.50;;;0.20;99.90;;;;;;5203611;28;20788;-50
2023/01/24 02:17:39;;;;;;;13.43;9.37;;;0.20;99.90;;;;;;5225994;28;20499;-48
2023/01/24 02:20:30;;;;;;;17.57;9.47;;;0.20;99.90;;;;;;5207249;28;20429;-49
2023/01/24 02:23:08;;;;;;;14.83;8.90;;;0.10;99.90;;;;;;5224811;28;20415;-50
2023/01/24 02:25:45;;;;;;;13.10;9.83;;;0.20;99.90;;;;;;5207848;28;20445;-50
2023/01/24 02:28:16;;;;;;;15.53;9.63;;;0.20;99.90;;;;;;5208611;28;20448;-51
2023/01/24 02:30:46;;;;;;;14.07;10.00;;;0.10;99.90;;;;;;5214007;28;20531;-53
2023/01/24 02:33:19;;;;;;;16.23;9.73;;;0.10;99.90;;;;;;5220868;28;20497;-49
2023/01/24 02:35:50;;;;;;;14.40;9.27;;;0.10;99.90;;;;;;5201035;28;20233;-49
2023/01/24 02:38:25;;;;;;;14.43;8.83;;;0.10;99.90;;;;;;5223118;28;20871;-49
2023/01/24 02:41:06;;;;;;;14.80;9.37;;;0.10;99.90;;;;;;5210236;28;20270;-50
2023/01/24 02:43:42;;;;;;;17.17;8.40;;;0.00;99.90;;;;;;5224901;28;20495;-50
2023/01/24 02:46:13;;;;;;;13.23;9.00;;;0.10;99.90;;;;;;5209484;28;20789;-49
2023/01/24 02:48:43;;;;;;;12.47;7.63;;;0.10;99.90;;;;;;5225071;28;20544;-50
2023/01/24 02:54:03;;;;;;;10.87;7.70;;;0.10;99.90;;;;;;5222455;28;20229;-49
2023/01/24 02:59:23;;;;;;;10.97;7.83;;;0.20;99.90;;;;;;5212983;28;20187;-49
2023/01/24 03:01:53;;;;;;;11.00;8.47;;;0.20;99.90;;;;;;5206940;28;20930;-53
2023/01/24 03:04:24;;;;;;;16.23;7.50;;;0.20;99.90;;;;;;5211933;28;20194;-50
2023/01/24 03:06:54;;;;;;;12.13;7.30;;;0.20;99.90;;;;;;5201839;28;20254;-51
2023/01/24 03:09:34;;;;;;;9.87;8.07;;;0.20;99.90;;;;;;5213862;28;20206;-48
2023/01/24 03:34:49;;;;;;;10.87;8.00;;;0.00;99.90;;;;;;5222672;28;20538;-48
2023/01/24 03:39:53;;;;;;;8.40;6.70;;;0.10;99.90;;;;;;5215000;28;20447;-52
2023/01/24 03:40:14;;;;;;;11.30;7.90;;;0.00;99.90;;;;;;5226261;28;20789;-49
2023/01/24 03:42:48;;;;;;;9.30;7.00;;;0.00;99.90;;;;;;5216385;28;20442;-51
2023/01/24 03:45:21;;;;;;;8.90;7.23;;;0.00;99.90;;;;;;5197164;28;20883;-50
2023/01/24 03:48:12;;;;;;;11.40;6.93;;;0.00;99.90;;;;;;5212957;28;20455;-49
2023/01/24 03:53:32;;;;;;;9.47;8.00;;;-0.10;99.90;;;;;;5229234;28;20789;-49
2023/01/24 03:56:03;;;;;;;12.50;9.23;;;-0.10;99.90;;;;;;5208380;28;20457;-51
2023/01/24 03:58:34;;;;;;;12.47;8.63;;;-0.10;99.90;;;;;;5226568;28;20219;-50
2023/01/24 04:01:05;;;;;;;11.60;8.40;;;-0.10;99.90;;;;;;5225161;28;20856;-50
2023/01/24 04:03:35;;;;;;;11.20;8.83;;;-0.10;99.90;;;;;;5219530;28;20709;-50
2023/01/24 04:06:06;;;;;;;13.30;8.40;;;-0.10;99.90;;;;;;5198250;28;20452;-50
2023/01/24 04:08:37;;;;;;;14.00;8.33;;;-0.10;99.90;;;;;;5220198;28;20215;-49
2023/01/24 04:11:07;;;;;;;18.20;8.93;;;-0.20;99.90;;;;;;5221581;28;20183;-50
2023/01/24 04:13:38;;;;;;;11.87;8.30;;;-0.20;99.90;;;;;;5216052;28;20716;-52
2023/01/24 04:16:09;;;;;;;13.23;8.63;;;-0.10;99.90;;;;;;5224942;28;20280;-49
2023/01/24 04:18:40;;;;;;;9.87;8.07;;;-0.20;99.90;;;;;;5219497;28;20210;-50
2023/01/24 04:21:11;;;;;;;13.60;8.53;;;-0.20;99.90;;;;;;5217406;28;20433;-49
2023/01/24 04:23:42;;;;;;;10.00;8.00;;;-0.20;99.90;;;;;;5219692;28;20529;-50
2023/01/24 04:26:12;;;;;;;9.00;7.90;;;-0.10;99.90;;;;;;5208379;28;20184;-50
2023/01/24 04:28:43;;;;;;;11.93;8.47;;;-0.10;99.90;;;;;;5212426;28;20228;-53
2023/01/24 04:31:13;;;;;;;13.93;8.90;;;-0.10;99.90;;;;;;5232328;28;20183;-51
2023/01/24 04:33:45;;;;;;;13.30;8.27;;;-0.10;99.90;;;;;;5213005;28;20194;-50
2023/01/24 04:36:16;;;;;;;12.60;8.90;;;-0.10;99.90;;;;;;5227468;28;20210;-50
2023/01/24 04:38:46;;;;;;;14.00;8.37;;;-0.20;99.90;;;;;;5197063;28;20434;-49
2023/01/24 04:41:17;;;;;;;10.90;8.57;;;-0.20;99.90;;;;;;5202093;28;20214;-49
2023/01/24 04:43:47;;;;;;;11.87;8.97;;;-0.10;99.90;;;;;;5227742;28;20179;-52
2023/01/24 04:46:18;;;;;;;10.00;8.40;;;-0.10;99.90;;;;;;5227862;28;20191;-51
2023/01/24 04:48:49;;;;;;;9.63;8.23;;;-0.10;99.90;;;;;;5220122;28;20262;-49
2023/01/24 04:51:19;;;;;;;14.83;8.90;;;-0.20;99.90;;;;;;5207907;28;20194;-50
2023/01/24 04:53:50;;;;;;;12.30;8.43;;;-0.10;99.90;;;;;;5202243;28;20222;-48
2023/01/24 04:56:20;;;;;;;14.43;9.07;;;-0.20;99.90;;;;;;5206941;28;20190;-49
2023/01/24 04:58:51;;;;;;;9.83;7.77;;;-0.20;99.90;;;;;;5227980;28;20711;-50
2023/01/24 05:01:21;;;;;;;11.10;8.40;;;-0.10;99.90;;;;;;5224389;28;20187;-52
2023/01/24 05:03:58;;;;;;;12.43;8.17;;;-0.10;99.90;;;;;;5217207;28;20190;-48
2023/01/24 05:06:30;;;;;;;11.60;8.10;;;-0.10;99.90;;;;;;5205920;28;20185;-48
2023/01/24 05:09:01;;;;;;;16.30;8.90;;;-0.10;99.90;;;;;;5222147;28;20423;-49
2023/01/24 05:11:32;;;;;;;10.40;8.30;;;-0.10;99.90;;;;;;5206990;28;20458;-52
2023/01/24 05:14:02;;;;;;;12.47;8.83;;;-0.10;99.90;;;;;;5227619;28;20316;-49
2023/01/24 05:16:33;;;;;;;18.07;9.47;;;-0.20;99.90;;;;;;5223331;28;20210;-49
2023/01/24 05:19:04;;;;;;;15.90;9.60;;;-0.10;99.90;;;;;;5222758;28;20536;-49
2023/01/24 05:21:35;;;;;;;12.77;9.60;;;-0.20;99.90;;;;;;5223555;28;20187;-49
2023/01/24 05:24:06;;;;;;;12.97;9.37;;;-0.20;99.90;;;;;;5202530;28;20448;-49
2023/01/24 05:26:37;;;;;;;12.80;9.40;;;-0.20;99.90;;;;;;5226131;28;20286;-50
2023/01/24 05:29:07;;;;;;;15.37;9.60;;;-0.20;99.90;;;;;;5206290;28;20837;-49
2023/01/24 05:31:38;;;;;;;14.70;9.27;;;-0.10;99.90;;;;;;5227572;28;20187;-49
2023/01/24 05:34:09;;;;;;;16.23;8.87;;;-0.10;99.90;;;;;;5223335;28;20194;-50
2023/01/24 05:36:39;;;;;;;10.97;8.93;;;-0.10;99.90;;;;;;5220738;28;20686;-49
2023/01/24 05:39:10;;;;;;;11.70;8.90;;;-0.20;99.90;;;;;;5211045;28;20197;-49
2023/01/24 05:41:40;;;;;;;12.00;8.77;;;-0.10;99.90;;;;;;5223821;28;20180;-50
2023/01/24 05:44:11;;;;;;;11.03;8.63;;;-0.10;99.90;;;;;;5225152;28;20234;-51
2023/01/24 05:46:43;;;;;;;10.60;8.63;;;-0.10;99.90;;;;;;5218662;28;20258;-51
2023/01/24 05:49:14;;;;;;;14.50;7.97;;;0.00;99.90;;;;;;5217539;28;20202;-50
2023/01/24 05:51:44;;;;;;;10.70;8.40;;;0.00;99.90;;;;;;5208225;28;20465;-49
2023/01/24 05:54:15;;;;;;;12.13;8.63;;;0.00;99.90;;;;;;5218909;28;20200;-49
2023/01/24 05:56:45;;;;;;;9.73;8.03;;;0.10;99.90;;;;;;5218601;28;20218;-50
2023/01/24 05:59:16;;;;;;;11.70;8.30;;;0.10;99.90;;;;;;5226391;28;20187;-49
2023/01/24 06:01:47;;;;;;;13.03;8.17;;;0.20;99.90;;;;;;5216098;28;20199;-49
2023/01/24 06:04:17;;;;;;;12.90;8.70;;;0.10;99.90;;;;;;5208743;28;20195;-50
2023/01/24 06:06:48;;;;;;;11.30;8.73;;;0.20;99.90;;;;;;5191773;28;20219;-53
2023/01/24 06:09:19;;;;;;;8.60;7.70;;;0.20;99.90;;;;;;5225330;28;20182;-51
2023/01/24 06:11:50;;;;;;;20.00;9.47;;;0.20;99.90;;;;;;5215309;28;20445;-49
2023/01/24 06:14:20;;;;;;;18.60;8.40;;;0.10;99.90;;;;;;5226813;28;20203;-49
2023/01/24 06:16:51;;;;;;;14.00;9.13;;;0.20;99.90;;;;;;5225705;28;20430;-49
2023/01/24 06:19:22;;;;;;;16.43;9.23;;;0.20;99.90;;;;;;5211373;28;20192;-51
2023/01/24 06:22:09;;;;;;;10.30;7.53;;;0.30;99.90;;;;;;5201044;28;20257;-51
2023/01/24 06:24:40;;;;;;;10.83;8.23;;;0.20;99.90;;;;;;5216993;28;20185;-52
2023/01/24 06:27:11;;;;;;;18.90;9.30;;;0.20;99.90;;;;;;5211381;28;20530;-51
2023/01/24 06:29:42;;;;;;;10.60;8.70;;;0.10;99.90;;;;;;5225046;28;20943;-52
2023/01/24 06:32:31;;;;;;;13.00;9.00;;;0.10;99.90;;;;;;5228111;28;20622;-52
2023/01/24 06:35:19;;;;;;;16.13;9.03;;;0.20;99.90;;;;;;5206121;28;20240;-51
2023/01/24 06:37:52;;;;;;;17.67;9.63;;;0.10;99.90;;;;;;5223446;28;20449;-52
2023/01/24 06:40:24;;;;;;;12.37;9.30;;;0.10;99.90;;;;;;5210290;28;20452;-50
2023/01/24 06:42:55;;;;;;;18.03;9.00;;;0.10;99.90;;;;;;5208566;28;20436;-49
2023/01/24 06:45:25;;;;;;;29.63;10.20;;;0.10;99.90;;;;;;5210601;28;20446;-50
2023/01/24 06:47:57;;;;;;;18.17;9.20;;;0.00;99.90;;;;;;5198980;28;20251;-53
2023/01/24 06:50:31;;;;;;;21.77;9.80;;;0.20;99.90;;;;;;5207072;28;20464;-49
2023/01/24 06:53:01;;;;;;;18.80;9.87;;;0.20;99.90;;;;;;5200205;28;20194;-49
2023/01/24 06:55:32;;;;;;;20.73;10.50;;;0.00;99.90;;;;;;5200995;28;20834;-52
2023/01/24 06:58:03;;;;;;;21.63;10.77;;;0.00;99.90;;;;;;5220264;22;20590;-52
2023/01/24 07:00:34;;;;;;;25.37;10.43;;;0.20;99.90;;;;;;5208300;28;20182;-51
2023/01/24 07:03:06;;;;;;;23.77;10.97;;;0.20;99.90;;;;;;5227700;28;20491;-52
2023/01/24 07:05:38;;;;;;;29.33;12.50;;;0.20;99.90;;;;;;5218253;28;20610;-51
2023/01/24 07:08:09;;;;;;;31.87;13.13;;;0.10;99.90;;;;;;5229261;28;20533;-52
2023/01/24 07:10:39;;;;;;;29.93;10.87;;;0.20;99.90;;;;;;5210414;28;21002;-51
2023/01/24 07:13:10;;;;;;;30.83;13.27;;;0.20;99.90;;;;;;5210296;28;20215;-51
2023/01/24 07:15:41;;;;;;;25.40;11.87;;;0.30;99.90;;;;;;5193725;28;20207;-51
2023/01/24 07:18:13;;;;;;;35.00;12.43;;;0.30;99.90;;;;;;5225454;28;20693;-53
2023/01/24 07:20:44;;;;;;;34.90;13.23;;;0.30;99.90;;;;;;5197509;28;20577;-51
2023/01/24 07:23:28;;;;;;;29.20;13.00;;;0.20;99.90;;;;;;5228687;28;20423;-48
2023/01/24 07:25:59;;;;;;;29.10;13.33;;;0.30;99.90;;;;;;5211664;28;20431;-49
2023/01/24 07:28:29;;;;;;;44.93;14.10;;;0.30;99.90;;;;;;5228292;28;20450;-52
2023/01/24 07:31:00;;;;;;;40.67;15.80;;;0.20;99.90;;;;;;5227653;28;20518;-52
2023/01/24 07:33:31;;;;;;;46.80;15.67;;;0.30;99.90;;;;;;5227725;28;20277;-49
2023/01/24 07:36:13;;;;;;;42.63;15.53;;;0.20;99.90;;;;;;5227057;28;20272;-51
2023/01/24 07:38:44;;;;;;;36.57;15.87;;;0.00;99.90;;;;;;5210228;28;20200;-51
2023/01/24 07:41:15;;;;;;;38.70;16.60;;;0.10;99.90;;;;;;5199639;28;20414;-52
2023/01/24 07:43:45;;;;;;;40.10;15.70;;;0.10;99.90;;;;;;5223355;28;20272;-53
2023/01/24 07:46:16;;;;;;;38.97;15.17;;;0.00;99.90;;;;;;5228414;28;20559;-51
2023/01/24 07:48:46;;;;;;;47.70;15.30;;;0.10;99.90;;;;;;5207585;28;20286;-51
2023/01/24 07:51:17;;;;;;;36.60;15.13;;;0.10;99.90;;;;;;5226846;28;20183;-52
2023/01/24 07:53:48;;;;;;;51.43;17.00;;;0.20;99.90;;;;;;5208887;28;20225;-53
2023/01/24 07:56:18;;;;;;;49.27;16.83;;;0.10;99.90;;;;;;5208241;28;20199;-52
2023/01/24 07:58:49;;;;;;;52.60;18.03;;;0.10;99.90;;;;;;5193321;28;20273;-51
2023/01/24 08:01:21;;;;;;;52.23;16.90;;;0.00;99.90;;;;;;5226061;28;20708;-51
2023/01/24 08:03:58;;;;;;;42.73;16.77;;;0.00;99.90;;;;;;5223920;28;20179;-52
2023/01/24 08:06:29;;;;;;;61.60;17.77;;;0.00;99.90;;;;;;5205257;28;20495;-51
2023/01/24 08:08:59;;;;;;;48.17;16.73;;;0.00;99.90;;;;;;5224953;28;20460;-49
2023/01/24 08:11:30;;;;;;;49.30;17.37;;;0.00;99.90;;;;;;5229212;28;20187;-49
2023/01/24 08:14:01;;;;;;;62.30;16.37;;;0.10;99.90;;;;;;5202648;28;20635;-50
2023/01/24 08:16:31;;;;;;;38.03;15.60;;;0.00;99.90;;;;;;5210014;28;20225;-49
2023/01/24 08:19:02;;;;;;;53.60;17.40;;;0.00;99.90;;;;;;5225783;28;20191;-52
2023/01/24 08:21:32;;;;;;;52.47;18.10;;;0.00;99.90;;;;;;5209329;28;20183;-53
2023/01/24 08:24:03;;;;;;;65.63;17.57;;;0.10;99.90;;;;;;5225293;28;20179;-52
2023/01/24 08:26:34;;;;;;;54.37;16.70;;;0.10;99.90;;;;;;5227494;28;20198;-51
2023/01/24 08:29:04;;;;;;;49.90;17.10;;;0.00;99.90;;;;;;5217614;28;20178;-51
2023/01/24 08:31:35;;;;;;;57.67;17.40;;;0.10;99.90;;;;;;5190303;28;20619;-53
2023/01/24 08:34:06;;;;;;;55.80;18.93;;;0.10;99.90;;;;;;5208858;28;20190;-52
2023/01/24 08:36:37;;;;;;;62.77;19.00;;;0.20;99.90;;;;;;5208770;28;20552;-53
2023/01/24 08:39:07;;;;;;;55.10;18.27;;;0.20;99.90;;;;;;5226757;28;20438;-50
2023/01/24 08:41:38;;;;;;;52.87;17.97;;;0.20;99.90;;;;;;5226222;28;20621;-52
2023/01/24 08:44:09;;;;;;;64.00;20.80;;;0.30;99.90;;;;;;5205804;28;20187;-49
2023/01/24 08:46:40;;;;;;;76.63;22.50;;;0.20;99.90;;;;;;5223211;28;20182;-49
2023/01/24 08:49:11;;;;;;;82.80;20.47;;;0.20;99.90;;;;;;5209052;28;20640;-49
2023/01/24 08:51:42;;;;;;;59.23;21.07;;;0.20;99.90;;;;;;5226558;28;20189;-48
2023/01/24 08:54:13;;;;;;;55.97;19.80;;;0.30;99.90;;;;;;5208599;28;20472;-49
2023/01/24 08:56:43;;;;;;;72.13;23.57;;;0.40;99.90;;;;;;5224307;28;20603;-51
2023/01/24 08:59:14;;;;;;;71.63;22.77;;;0.40;99.90;;;;;;5214836;28;20497;-50
2023/01/24 09:01:44;;;;;;;90.43;25.70;;;0.50;99.90;;;;;;5207753;28;20215;-48
2023/01/24 09:04:15;;;;;;;76.60;26.10;;;0.50;99.90;;;;;;5226951;28;21142;-50
2023/01/24 09:06:46;;;;;;;89.43;25.00;;;0.50;99.90;;;;;;5192853;28;20185;-47
2023/01/24 09:09:16;;;;;;;90.23;26.40;;;0.40;99.90;;;;;;5222686;28;20222;-49
2023/01/24 09:11:47;;;;;;;99.40;26.47;;;0.50;99.90;;;;;;5225802;28;20183;-49
2023/01/24 09:14:18;;;;;;;94.80;24.50;;;0.50;99.90;;;;;;5227366;28;20180;-49
2023/01/24 09:16:48;;;;;;;92.17;25.30;;;0.50;99.90;;;;;;5225512;28;20183;-48
2023/01/24 09:19:19;;;;;;;92.60;26.10;;;0.60;99.90;;;;;;5226646;28;20261;-48
2023/01/24 09:21:51;;;;;;;91.10;26.63;;;0.60;99.90;;;;;;5207925;28;20204;-50
2023/01/24 09:24:23;;;;;;;85.13;28.10;;;0.60;99.90;;;;;;5226442;28;20189;-49
2023/01/24 09:26:54;;;;;;;91.37;26.97;;;0.50;99.90;;;;;;5208848;28;20442;-49
2023/01/24 09:29:24;;;;;;;101.27;26.43;;;0.70;99.90;;;;;;5218207;28;20437;-52
2023/01/24 09:31:55;;;;;;;118.37;30.83;;;0.80;99.90;;;;;;5224469;28;20547;-49
2023/01/24 09:34:25;;;;;;;100.60;26.07;;;0.90;99.90;;;;;;5225990;28;20204;-48
2023/01/24 09:36:56;;;;;;;108.27;27.33;;;0.80;99.90;;;;;;5226330;28;20204;-50
2023/01/24 09:39:27;;;;;;;92.97;27.07;;;0.90;99.90;;;;;;5226570;28;20546;-49
2023/01/24 09:42:24;;;;;;;86.17;28.30;;;0.90;99.90;;;;;;5204764;28;20207;-50
2023/01/24 09:45:00;;;;;;;102.57;27.83;;;0.80;99.90;;;;;;5224532;28;20195;-49
2023/01/24 09:47:41;;;;;;;96.17;27.57;;;0.90;99.90;;;;;;5215162;28;20491;-48
2023/01/24 09:50:21;;;;;;;93.27;27.93;;;0.80;99.90;;;;;;5205071;28;20805;-48
2023/01/24 09:52:57;;;;;;;75.33;25.60;;;0.70;99.90;;;;;;5223610;28;20974;-50
2023/01/24 09:55:40;;;;;;;92.00;26.73;;;0.70;99.90;;;;;;5183473;28;21040;-48
2023/01/24 09:58:31;;;;;;;105.77;27.80;;;0.80;99.90;;;;;;5212396;28;20469;-47
2023/01/24 10:01:11;;;;;;;80.60;25.73;;;0.80;99.90;;;;;;5199060;28;20521;-50
2023/01/24 10:03:43;;;;;;;80.23;25.83;;;0.80;99.90;;;;;;5218157;28;20529;-50
2023/01/24 10:06:23;;;;;;;87.80;28.50;;;0.90;99.90;;;;;;5226292;28;20429;-48
2023/01/24 10:09:03;;;;;;;97.67;26.13;;;1.00;99.90;;;;;;5192411;28;20449;-49
2023/01/24 10:11:39;;;;;;;92.33;27.03;;;1.20;99.90;;;;;;5226814;28;20412;-47
2023/01/24 10:14:34;;;;;;;85.50;26.80;;;1.20;99.90;;;;;;5208237;28;20531;-47
2023/01/24 10:17:24;;;;;;;97.53;27.47;;;1.10;99.90;;;;;;5227220;28;20640;-47
2023/01/24 10:20:11;;;;;;;89.77;27.27;;;1.10;99.90;;;;;;5194022;28;20795;-47
2023/01/24 10:22:59;;;;;;;86.20;27.03;;;1.10;99.90;;;;;;5224549;28;20448;-49
2023/01/24 10:25:38;;;;;;;107.00;30.00;;;1.10;99.90;;;;;;5224266;28;20992;-48
2023/01/24 10:28:26;;;;;;;94.33;27.30;;;1.10;99.90;;;;;;5207094;28;20463;-50
2023/01/24 10:31:06;;;;;;;91.57;26.60;;;1.00;99.90;;;;;;5220049;28;20441;-49
2023/01/24 10:33:47;;;;;;;78.57;24.97;;;1.10;99.90;;;;;;5225888;28;21042;-48
2023/01/24 10:36:35;;;;;;;88.07;26.27;;;1.10;99.90;;;;;;5220695;28;20557;-50
2023/01/24 10:39:05;;;;;;;85.90;24.90;;;1.20;99.90;;;;;;5211216;28;20431;-51
2023/01/24 10:41:37;;;;;;;69.57;25.37;;;1.20;99.90;;;;;;5229606;28;21052;-49
2023/01/24 10:44:19;;;;;;;60.53;23.27;;;1.20;99.90;;;;;;5211063;28;20183;-50
2023/01/24 10:47:18;;;;;;;76.37;25.00;;;1.40;99.90;;;;;;5227243;28;20444;-49
2023/01/24 10:50:04;;;;;;;80.97;25.60;;;1.40;99.90;;;;;;5228351;28;20442;-49
2023/01/24 10:52:35;;;;;;;69.97;24.37;;;1.50;99.90;;;;;;5220519;28;20431;-49
2023/01/24 10:55:29;;;;;;;67.83;24.13;;;1.50;99.90;;;;;;5227285;28;20505;-49
2023/01/24 10:58:08;;;;;;;81.33;25.30;;;1.40;99.90;;;;;;5219008;28;20307;-49
2023/01/24 11:00:43;;;;;;;61.30;24.00;;;1.50;99.90;;;;;;5226167;28;20461;-51
2023/01/24 11:03:28;;;;;;;73.03;24.70;;;1.50;99.90;;;;;;5225648;28;20481;-49
2023/01/24 11:05:58;;;;;;;71.53;23.43;;;1.40;99.90;;;;;;5227879;28;21001;-49
2023/01/24 11:08:33;;;;;;;78.43;24.50;;;1.40;99.90;;;;;;5211583;28;20449;-52
2023/01/24 11:11:24;;;;;;;73.07;24.53;;;1.40;99.90;;;;;;5196644;28;20186;-49
2023/01/24 11:13:57;;;;;;;67.13;23.40;;;1.30;99.90;;;;;;5208781;28;20845;-49
2023/01/24 11:16:42;;;;;;;79.53;24.83;;;1.30;99.90;;;;;;5228361;28;20887;-49
2023/01/24 11:19:29;;;;;;;71.90;22.20;;;1.40;99.90;;;;;;5210809;28;20512;-48
2023/01/24 11:22:02;;;;;;;60.60;20.77;;;1.40;99.90;;;;;;5227455;28;20433;-48
2023/01/24 11:24:43;;;;;;;71.33;21.60;;;1.60;99.90;;;;;;5208259;28;20524;-49
2023/01/24 11:27:19;;;;;;;59.97;19.80;;;1.70;99.90;;;;;;5228125;28;20440;-48
2023/01/24 11:30:13;;;;;;;53.53;21.53;;;1.70;99.90;;;;;;5229153;28;20471;-50
2023/01/24 11:33:01;;;;;;;61.97;20.20;;;1.80;99.90;;;;;;5212806;28;20436;-49
2023/01/24 11:35:39;;;;;;;61.93;21.90;;;1.90;99.90;;;;;;5227008;28;20469;-49
2023/01/24 11:38:19;;;;;;;61.33;20.77;;;2.00;99.90;;;;;;5210183;28;20813;-51
2023/01/24 11:41:19;;;;;;;61.83;22.47;;;2.00;99.90;;;;;;5229042;28;20860;-49
2023/01/24 11:44:27;;;;;;;49.00;19.33;;;1.80;99.90;;;;;;5228965;28;20441;-49
2023/01/24 11:47:13;;;;;;;44.70;20.13;;;1.70;99.90;;;;;;5228183;28;20453;-47
2023/01/24 11:50:03;;;;;;;54.80;20.03;;;1.70;99.90;;;;;;5211387;28;20533;-48
2023/01/24 11:52:42;;;;;;;62.07;20.23;;;1.60;99.90;;;;;;5207019;28;20438;-48
2023/01/24 11:55:26;;;;;;;43.27;18.77;;;1.60;99.90;;;;;;5226013;28;20456;-47
2023/01/24 11:58:20;;;;;;;38.33;18.67;;;1.60;99.90;;;;;;5226688;28;20562;-47
2023/01/24 12:01:19;;;;;;;64.50;20.50;;;1.60;99.90;;;;;;5221401;28;20499;-47
2023/01/24 12:04:19;;;;;;;53.13;20.23;;;1.70;99.90;;;;;;5222342;28;20430;-47
2023/01/24 12:06:52;;;;;;;55.30;19.27;;;1.70;99.90;;;;;;5210475;28;20445;-47
2023/01/24 12:09:28;;;;;;;43.10;17.37;;;1.70;99.90;;;;;;5225163;28;20610;-50
2023/01/24 12:12:16;;;;;;;44.03;19.07;;;1.60;99.90;;;;;;5222711;28;20499;-47
2023/01/24 12:14:46;;;;;;;55.33;19.60;;;1.60;99.90;;;;;;5215849;28;20563;-49
2023/01/24 12:17:49;;;;;;;55.83;20.17;;;1.70;99.90;;;;;;5206529;28;20457;-48
2023/01/24 12:20:41;;;;;;;49.30;18.13;;;1.70;99.90;;;;;;5226016;28;20187;-47
2023/01/24 12:23:37;;;;;;;51.53;19.83;;;1.90;99.90;;;;;;5222767;28;20433;-47
2023/01/24 12:26:32;;;;;;;45.60;19.20;;;1.90;99.90;;;;;;5210892;28;20504;-48
2023/01/24 12:29:07;;;;;;;55.20;21.03;;;1.90;99.90;;;;;;5227475;28;20437;-47
2023/01/24 12:32:00;;;;;;;49.20;19.80;;;1.80;99.90;;;;;;5228310;28;21006;-47
2023/01/24 12:35:10;;;;;;;56.27;21.00;;;1.70;99.90;;;;;;5229413;28;20461;-48
2023/01/24 12:38:13;;;;;;;49.57;19.70;;;1.70;99.90;;;;;;5227194;28;20453;-46
2023/01/24 12:41:00;;;;;;;50.40;18.10;;;1.60;99.90;;;;;;5210046;28;20636;-49
2023/01/24 12:43:49;;;;;;;58.73;21.77;;;1.60;99.90;;;;;;5228680;28;20496;-47
2023/01/24 12:46:46;;;;;;;51.43;19.63;;;1.50;99.90;;;;;;5203344;28;20440;-48
2023/01/24 12:49:34;;;;;;;74.77;22.77;;;1.50;99.90;;;;;;5206613;28;20492;-49
2023/01/24 12:52:32;;;;;;;60.70;22.87;;;1.40;99.90;;;;;;5203379;28;20488;-47
2023/01/24 12:55:24;;;;;;;59.53;21.67;;;1.50;99.90;;;;;;5209193;28;20465;-46
2023/01/24 12:58:03;;;;;;;69.30;21.63;;;1.40;99.90;;;;;;5233575;22;21011;-47
2023/01/24 13:00:55;;;;;;;56.50;21.07;;;1.40;99.90;;;;;;5232174;28;20427;-46
2023/01/24 13:03:48;;;;;;;47.33;20.50;;;1.50;99.90;;;;;;5249955;28;20413;-50
2023/01/24 13:06:46;;;;;;;68.67;22.53;;;1.50;99.90;;;;;;5251469;28;20439;-45
2023/01/24 13:09:39;;;;;;;60.53;21.60;;;1.50;99.90;;;;;;5228765;28;20468;-51
2023/01/24 13:12:17;;;;;;;76.93;21.97;;;1.70;99.90;;;;;;5225179;28;20430;-47
2023/01/24 13:14:55;;;;;;;55.60;19.10;;;1.50;99.90;;;;;;5214666;28;20773;-48
2023/01/24 13:17:31;;;;;;;53.67;20.07;;;1.50;99.90;;;;;;5231542;28;20940;-47
2023/01/24 13:20:26;;;;;;;54.70;20.30;;;1.50;99.90;;;;;;5209587;28;20504;-47
2023/01/24 13:23:34;;;;;;;54.83;20.10;;;1.60;99.90;;;;;;5208994;28;20987;-47
2023/01/24 13:26:32;;;;;;;47.83;19.90;;;1.60;99.90;;;;;;5202624;28;20797;-48
2023/01/24 13:29:18;;;;;;;49.30;19.97;;;1.50;99.90;;;;;;5214290;28;20949;-48
2023/01/24 13:32:07;;;;;;;66.67;20.13;;;1.50;99.90;;;;;;5221207;28;20433;-46
2023/01/24 13:34:56;;;;;;;62.23;19.83;;;1.60;99.90;;;;;;5211725;28;20496;-48
2023/01/24 13:37:32;;;;;;;58.70;19.30;;;1.50;99.90;;;;;;5230147;28;20462;-47
2023/01/24 13:40:23;;;;;;;57.57;19.43;;;1.40;99.90;;;;;;5213126;28;20468;-47
2023/01/24 13:42:54;;;;;;;54.73;19.23;;;1.40;99.90;;;;;;5209035;28;20429;-47
2023/01/24 13:45:30;;;;;;;54.70;18.60;;;1.50;99.90;;;;;;5213611;28;20512;-49
2023/01/24 13:48:03;;;;;;;49.47;17.60;;;1.50;99.90;;;;;;5220783;28;20209;-49
2023/01/24 13:50:33;;;;;;;61.50;19.57;;;1.50;99.90;;;;;;5227917;28;20437;-47
2023/01/24 13:53:04;;;;;;;46.80;18.27;;;1.50;99.90;;;;;;5210943;28;20982;-47
2023/01/24 13:55:38;;;;;;;44.77;18.30;;;1.50;99.90;;;;;;5210255;28;20214;-49
2023/01/24 13:58:12;;;;;;;40.27;17.20;;;1.60;99.90;;;;;;5208156;28;20538;-50